Huvudsida
METAR-TAF:

METAR-TAF

Flygplatser :

Sandane flygplats. Anda

Sandane, Norge

latitud: 61-50N, longitud: 006-07E, höjd: 6 m

Aktuellt väderrapport

Denna rapport gjordes för 31 minuter sedan, klockan 13:50 UTC
Vind 9 kt från väst/nordväst, varierande mellan väst och nord/nordväst
Temperatur 11°C
Fuktighet 54%
Tryck 1002 hPa
Sikt 10 km eller mer
Få moln på en höjd av 3500 ft
Spridda moln på en höjd av 5500 ft

METAR: ENSD 261350Z 29009KT 260V340 9999 FEW035 SCT055 11/02 Q1002 RMK WIND 1138FT VRB05KT

Tid: 16:21 (14:21 UTC)


TAF: saknas

Aktuella väderrapporter och prognoser från 4000 flygplatser (METAR- och TAF-rapporter).

De tillgängliga stationerna syns som gula och röda prickar på kartan.

För musen över prickarna för att se namnen på stationerna.

Klicka sedan för att få väderrapporter och prognoser.

För att ändra kartan: Klicka på de gröna knapparna med ett svart kors på för att zooma in; den gröna knappen med ett streck på för att zooma ut; eller på de gröna pilarna för angränsande kartor.


METAR-TAF: